createdAt,value
2023-01-09T00:00:55.913Z,63.30
2023-01-09T00:03:59.522Z,66.88
2023-01-09T00:07:02.786Z,62.38
2023-01-09T00:10:06.981Z,66.55
2023-01-09T00:13:14.101Z,61.50
2023-01-09T00:16:17.958Z,62.80
2023-01-09T00:19:21.260Z,61.65
2023-01-09T00:22:24.626Z,58.50
2023-01-09T00:25:28.012Z,54.45
2023-01-09T00:28:32.850Z,50.88
2023-01-09T00:31:36.081Z,60.83
2023-01-09T00:34:39.846Z,57.10
2023-01-09T00:37:43.097Z,57.17
2023-01-09T00:40:46.382Z,58.45
2023-01-09T00:43:55.410Z,53.13
2023-01-09T00:47:02.723Z,53.00
2023-01-09T00:50:09.754Z,52.33
2023-01-09T00:53:16.777Z,56.20
2023-01-09T00:56:21.638Z,53.10
2023-01-09T00:59:27.904Z,54.80
2023-01-09T01:02:31.376Z,55.90
2023-01-09T01:05:52.217Z,54.20
2023-01-09T01:08:56.968Z,52.55
2023-01-09T01:12:00.275Z,53.63
2023-01-09T01:15:05.938Z,52.65
2023-01-09T01:18:09.251Z,52.40
2023-01-09T01:21:14.586Z,53.03
2023-01-09T01:24:19.807Z,49.95
2023-01-09T01:27:23.055Z,48.83
2023-01-09T01:30:28.102Z,49.25
2023-01-09T01:33:31.465Z,47.33
2023-01-09T01:36:35.298Z,46.70
2023-01-09T01:39:40.191Z,46.15
2023-01-09T01:42:47.665Z,44.05
2023-01-09T01:45:53.083Z,43.90
2023-01-09T01:49:01.439Z,47.92
2023-01-09T01:52:04.830Z,46.97
2023-01-09T01:55:10.397Z,42.85
2023-01-09T01:58:16.665Z,43.88
2023-01-09T02:01:23.707Z,43.20
2023-01-09T02:04:27.743Z,43.70
2023-01-09T02:07:31.280Z,43.28
2023-01-09T02:10:35.271Z,40.08
2023-01-09T02:13:40.581Z,45.70
2023-01-09T02:16:56.218Z,39.28
2023-01-09T02:20:32.574Z,44.42
2023-01-09T02:24:08.330Z,45.35
2023-01-09T02:27:47.554Z,42.13
2023-01-09T02:30:57.694Z,42.97
2023-01-09T02:34:06.941Z,43.45
2023-01-09T02:37:18.185Z,39.95
2023-01-09T02:40:27.758Z,42.15
2023-01-09T02:43:32.815Z,39.90
2023-01-09T02:46:37.515Z,44.53
2023-01-09T02:49:41.390Z,38.55
2023-01-09T02:53:10.749Z,42.03
2023-01-09T02:56:34.726Z,40.63
2023-01-09T02:59:54.412Z,41.22
2023-01-09T03:03:08.498Z,31.40
2023-01-09T03:06:19.468Z,39.58
2023-01-09T03:09:27.544Z,39.88
2023-01-09T03:12:34.375Z,38.88
2023-01-09T03:15:40.987Z,44.53
2023-01-09T03:18:46.881Z,37.40
2023-01-09T03:21:51.356Z,42.88
2023-01-09T03:24:54.542Z,41.42
2023-01-09T03:28:01.094Z,39.50
2023-01-09T03:31:04.328Z,41.00
2023-01-09T03:34:09.100Z,38.30
2023-01-09T03:37:12.311Z,38.20
2023-01-09T03:40:15.764Z,40.78
2023-01-09T03:43:19.075Z,39.60
2023-01-09T03:46:22.295Z,39.28
2023-01-09T03:49:27.032Z,39.47
2023-01-09T03:52:30.269Z,39.50
2023-01-09T03:55:33.512Z,40.75
2023-01-09T03:58:36.767Z,39.60
2023-01-09T04:01:40.110Z,37.40
2023-01-09T04:04:45.138Z,37.58
2023-01-09T04:07:48.649Z,39.63
2023-01-09T04:10:54.735Z,38.13
2023-01-09T04:13:58.142Z,42.03
2023-01-09T04:17:01.852Z,35.63
2023-01-09T04:20:07.563Z,37.45
2023-01-09T04:23:10.757Z,37.72
2023-01-09T04:26:14.241Z,41.05
2023-01-09T04:29:17.367Z,39.35
2023-01-09T04:32:20.568Z,40.17
2023-01-09T04:35:25.200Z,40.58
2023-01-09T04:38:28.491Z,41.67
2023-01-09T04:41:50.511Z,38.20
2023-01-09T04:44:55.353Z,37.17
2023-01-09T04:47:58.518Z,37.92
2023-01-09T04:51:05.927Z,34.03
2023-01-09T04:54:09.216Z,37.20
2023-01-09T04:57:12.559Z,34.15
2023-01-09T05:00:16.819Z,34.40
2023-01-09T05:03:20.013Z,40.22
2023-01-09T05:06:24.562Z,36.08
2023-01-09T05:09:27.997Z,37.58
2023-01-09T05:12:31.395Z,35.08
2023-01-09T05:15:34.544Z,37.17
2023-01-09T05:18:38.118Z,32.88
2023-01-09T05:21:42.713Z,38.50
2023-01-09T05:24:47.036Z,36.50
2023-01-09T05:27:50.287Z,36.22
2023-01-09T05:30:53.502Z,42.83
2023-01-09T05:33:59.244Z,35.60
2023-01-09T05:37:03.863Z,40.53
2023-01-09T05:40:08.298Z,40.45
2023-01-09T05:43:11.488Z,35.55
2023-01-09T05:46:14.865Z,38.97
2023-01-09T05:49:18.299Z,40.95
2023-01-09T05:52:23.141Z,39.85
2023-01-09T05:55:26.487Z,37.15
2023-01-09T05:58:29.756Z,42.75
2023-01-09T06:01:33.239Z,37.38
2023-01-09T06:04:36.875Z,41.53
2023-01-09T06:07:43.040Z,42.85
2023-01-09T06:10:47.518Z,44.67
2023-01-09T06:13:50.709Z,41.92
2023-01-09T06:16:54.097Z,46.08
2023-01-09T06:19:57.389Z,45.40
2023-01-09T06:23:01.992Z,48.35
2023-01-09T06:26:05.499Z,47.72
2023-01-09T06:29:09.069Z,43.72
2023-01-09T06:32:12.308Z,42.45
2023-01-09T06:35:15.597Z,43.95
2023-01-09T06:38:20.662Z,50.70
2023-01-09T06:41:23.928Z,50.38
2023-01-09T06:44:31.169Z,46.78
2023-01-09T06:47:34.838Z,49.33
2023-01-09T06:50:40.830Z,50.40
2023-01-09T06:53:45.553Z,45.22
2023-01-09T06:56:49.227Z,46.50
2023-01-09T06:59:52.422Z,44.20
2023-01-09T07:02:55.570Z,43.15
2023-01-09T07:05:58.822Z,44.95
2023-01-09T07:09:03.438Z,44.88
2023-01-09T07:12:07.290Z,45.38
2023-01-09T07:15:11.373Z,45.28
2023-01-09T07:18:14.655Z,47.10
2023-01-09T07:21:19.506Z,44.55
2023-01-09T07:24:24.323Z,44.38
2023-01-09T07:27:27.519Z,46.20
2023-01-09T07:30:30.741Z,45.83
2023-01-09T07:33:35.223Z,51.85
2023-01-09T07:36:38.418Z,59.10
2023-01-09T07:39:43.353Z,56.85
2023-01-09T07:42:46.700Z,45.90
2023-01-09T07:45:49.878Z,48.92
2023-01-09T07:48:53.307Z,45.92
2023-01-09T07:51:56.641Z,42.05
2023-01-09T07:55:01.696Z,48.63
2023-01-09T07:58:04.943Z,42.20
2023-01-09T08:01:08.477Z,45.50
2023-01-09T08:04:11.935Z,39.25
2023-01-09T08:07:15.351Z,35.83
2023-01-09T08:10:20.909Z,38.33
2023-01-09T08:13:24.183Z,33.38
2023-01-09T08:16:27.569Z,36.50
2023-01-09T08:19:30.884Z,31.02
2023-01-09T08:22:34.055Z,33.30
2023-01-09T08:25:39.715Z,32.47
2023-01-09T08:28:42.924Z,31.63
2023-01-09T08:31:46.169Z,30.75
2023-01-09T08:34:49.467Z,31.10
2023-01-09T08:37:52.722Z,29.25
2023-01-09T08:40:57.610Z,27.38
2023-01-09T08:44:18.041Z,25.45
2023-01-09T08:50:26.262Z,28.08
2023-01-09T08:53:31.434Z,27.08
2023-01-09T08:56:36.796Z,25.88
2023-01-09T08:59:40.353Z,28.33
2023-01-09T09:02:43.628Z,26.27
2023-01-09T09:05:47.056Z,27.35
2023-01-09T09:08:50.341Z,28.60
2023-01-09T09:11:55.090Z,29.55
2023-01-09T09:15:23.806Z,36.67
2023-01-09T09:18:27.019Z,25.33
2023-01-09T09:21:30.206Z,25.20
2023-01-09T09:24:33.354Z,23.48
2023-01-09T09:27:38.139Z,22.65
2023-01-09T09:30:41.357Z,25.80
2023-01-09T09:33:44.593Z,23.73
2023-01-09T09:36:47.858Z,26.92
2023-01-09T09:39:51.189Z,45.40
2023-01-09T09:43:30.580Z,51.60
2023-01-09T09:46:42.596Z,30.80
2023-01-09T09:49:56.811Z,29.05
2023-01-09T09:53:04.741Z,24.10
2023-01-09T09:56:13.891Z,25.88
2023-01-09T09:59:20.928Z,22.00
2023-01-09T10:02:28.989Z,22.13
2023-01-09T10:05:35.912Z,22.58
2023-01-09T10:08:47.260Z,24.77
2023-01-09T10:11:58.278Z,23.55
2023-01-09T10:15:15.062Z,25.05
2023-01-09T10:18:27.028Z,29.20
2023-01-09T10:21:38.466Z,31.15
2023-01-09T10:25:02.594Z,30.65
2023-01-09T10:28:27.959Z,29.73
2023-01-09T10:31:39.735Z,30.20
2023-01-09T10:34:53.830Z,31.80
2023-01-09T10:38:01.557Z,32.25
2023-01-09T10:41:09.400Z,30.15
2023-01-09T10:44:20.495Z,29.95
2023-01-09T10:47:32.602Z,27.55
2023-01-09T10:50:39.743Z,29.23
2023-01-09T10:53:47.196Z,32.60
2023-01-09T10:56:59.522Z,37.83
2023-01-09T11:00:02.912Z,71.30
2023-01-09T11:03:12.035Z,69.25
2023-01-09T11:06:23.156Z,144.40
2023-01-09T11:09:26.555Z,104.90
2023-01-09T11:12:31.534Z,76.60
2023-01-09T11:15:35.038Z,74.35
2023-01-09T11:18:49.053Z,84.85
2023-01-09T11:22:06.487Z,154.32
2023-01-09T11:25:14.811Z,189.82
2023-01-09T11:28:18.167Z,113.88
2023-01-09T11:31:24.535Z,106.90
2023-01-09T11:34:32.017Z,263.00
2023-01-09T11:37:35.839Z,116.40
2023-01-09T11:40:47.756Z,82.47
2023-01-09T11:43:53.049Z,122.68
2023-01-09T11:46:56.583Z,98.68
2023-01-09T11:50:18.739Z,137.57
2023-01-09T11:53:22.159Z,132.35
2023-01-09T11:56:25.838Z,84.82
2023-01-09T11:59:31.357Z,108.28
2023-01-09T12:02:53.166Z,125.93
2023-01-09T12:06:05.456Z,112.53
2023-01-09T12:09:12.508Z,115.70
2023-01-09T12:12:29.320Z,80.10
2023-01-09T12:15:37.824Z,81.10
2023-01-09T12:19:01.088Z,99.13
2023-01-09T12:22:16.659Z,103.22
2023-01-09T12:25:29.201Z,107.38
2023-01-09T12:28:44.896Z,98.07
2023-01-09T12:32:13.183Z,74.55
2023-01-09T12:35:29.538Z,68.78
2023-01-09T12:38:43.373Z,63.60
2023-01-09T12:42:08.857Z,65.10
2023-01-09T12:45:29.668Z,72.60
2023-01-09T12:48:51.366Z,70.32
2023-01-09T12:52:01.154Z,66.63
2023-01-09T12:55:14.117Z,43.05
2023-01-09T12:58:28.281Z,84.70
2023-01-09T13:01:40.731Z,57.80
2023-01-09T13:04:51.225Z,65.53
2023-01-09T13:08:00.713Z,55.78
2023-01-09T13:11:20.453Z,54.23
2023-01-09T13:14:31.155Z,45.50
2023-01-09T13:17:41.746Z,32.35
2023-01-09T13:20:47.854Z,31.02
2023-01-09T13:23:55.338Z,33.90
2023-01-09T13:27:03.217Z,30.90
2023-01-09T13:30:19.275Z,34.88
2023-01-09T13:33:27.980Z,33.05
2023-01-09T13:36:34.826Z,41.38
2023-01-09T13:39:38.279Z,34.13
2023-01-09T13:42:46.552Z,31.17
2023-01-09T13:45:52.919Z,31.17
2023-01-09T13:48:56.204Z,32.15
2023-01-09T13:52:04.627Z,28.52
2023-01-09T13:55:30.340Z,29.90
2023-01-09T13:58:59.530Z,26.67
2023-01-09T14:02:02.899Z,26.33
2023-01-09T14:05:11.862Z,28.13
2023-01-09T14:08:19.840Z,25.70
2023-01-09T14:11:27.480Z,24.50
2023-01-09T14:14:35.105Z,25.42
2023-01-09T14:17:39.654Z,26.00
2023-01-09T14:20:45.867Z,25.80
2023-01-09T14:24:05.325Z,25.52
2023-01-09T14:27:48.378Z,28.80
2023-01-09T14:31:30.032Z,26.27
2023-01-09T14:34:38.616Z,27.67
2023-01-09T14:37:43.250Z,24.40
2023-01-09T14:40:53.355Z,24.65
2023-01-09T14:44:02.847Z,24.42
2023-01-09T14:47:14.575Z,27.90
2023-01-09T14:50:20.538Z,25.73
2023-01-09T14:53:27.184Z,27.38
2023-01-09T14:56:34.614Z,32.85
2023-01-09T14:59:37.910Z,33.60
2023-01-09T15:02:44.300Z,27.38
2023-01-09T15:05:48.610Z,28.13
2023-01-09T15:08:56.253Z,28.05
2023-01-09T15:12:05.657Z,26.55
2023-01-09T15:15:15.104Z,24.30
2023-01-09T15:18:24.896Z,19.23
2023-01-09T15:21:30.984Z,29.80
2023-01-09T15:24:35.715Z,29.40
2023-01-09T15:27:48.752Z,27.08
2023-01-09T15:30:58.025Z,30.02
2023-01-09T15:34:05.949Z,28.08
2023-01-09T15:37:26.324Z,31.83
2023-01-09T15:40:37.284Z,33.03
2023-01-09T15:43:44.775Z,36.55
2023-01-09T15:46:50.111Z,39.72
2023-01-09T15:49:56.782Z,31.33
2023-01-09T15:53:01.112Z,32.53
2023-01-09T15:56:19.479Z,32.22
2023-01-09T15:59:28.227Z,24.05
2023-01-09T16:02:57.050Z,25.27
2023-01-09T16:06:08.252Z,37.22
2023-01-09T16:09:17.858Z,45.72
2023-01-09T16:12:23.906Z,46.95
2023-01-09T16:15:27.415Z,30.92
2023-01-09T16:18:34.018Z,36.92
2023-01-09T16:21:39.247Z,47.38
2023-01-09T16:24:42.968Z,27.33
2023-01-09T16:27:46.342Z,27.45
2023-01-09T16:30:55.055Z,29.73
2023-01-09T16:34:00.853Z,24.95
2023-01-09T16:37:07.991Z,26.83
2023-01-09T16:40:27.334Z,30.65
2023-01-09T16:43:30.621Z,32.95
2023-01-09T16:46:38.142Z,30.38
2023-01-09T16:49:41.398Z,24.48
2023-01-09T16:52:47.600Z,24.85
2023-01-09T16:55:51.926Z,26.15
2023-01-09T16:58:56.061Z,28.67
2023-01-09T17:01:59.545Z,27.20
2023-01-09T17:05:03.534Z,27.00
2023-01-09T17:08:16.927Z,26.15
2023-01-09T17:11:23.001Z,26.90
2023-01-09T17:14:28.706Z,26.67
2023-01-09T17:17:32.264Z,24.83
2023-01-09T17:20:36.296Z,28.05
2023-01-09T17:23:43.309Z,30.77
2023-01-09T17:27:07.797Z,25.52
2023-01-09T17:30:18.966Z,32.05
2023-01-09T17:33:22.593Z,28.77
2023-01-09T17:36:30.647Z,27.52
2023-01-09T17:39:35.315Z,30.10
2023-01-09T17:42:38.597Z,28.67
2023-01-09T17:45:43.054Z,33.53
2023-01-09T17:48:46.647Z,27.67
2023-01-09T17:51:50.447Z,36.60
2023-01-09T17:54:55.360Z,32.35
2023-01-09T17:57:58.722Z,28.80
2023-01-09T18:01:02.348Z,29.90
2023-01-09T18:04:05.895Z,30.88
2023-01-09T18:07:10.971Z,28.33
2023-01-09T18:10:18.924Z,30.42
2023-01-09T18:13:22.459Z,33.33
2023-01-09T18:16:27.862Z,28.80
2023-01-09T18:19:31.447Z,30.88
2023-01-09T18:22:35.509Z,45.25
2023-01-09T18:25:42.656Z,50.38
2023-01-09T18:28:46.112Z,38.38
2023-01-09T18:31:49.521Z,50.20
2023-01-09T18:34:53.014Z,38.25
2023-01-09T18:37:56.310Z,53.85
2023-01-09T18:41:02.359Z,46.08
2023-01-09T18:44:05.766Z,52.92
2023-01-09T18:47:09.038Z,35.28
2023-01-09T18:50:12.711Z,32.58
2023-01-09T18:53:17.063Z,34.00
2023-01-09T18:56:23.246Z,37.08
2023-01-09T18:59:26.467Z,32.83
2023-01-09T19:02:29.973Z,31.85
2023-01-09T19:05:33.683Z,34.72
2023-01-09T19:08:37.158Z,28.30
2023-01-09T19:11:44.309Z,33.17
2023-01-09T19:14:48.264Z,45.00
2023-01-09T19:17:52.905Z,32.17
2023-01-09T19:20:59.314Z,40.15
2023-01-09T19:24:02.622Z,103.43
2023-01-09T19:27:07.364Z,48.95
2023-01-09T19:30:12.334Z,41.50
2023-01-09T19:33:15.617Z,38.47
2023-01-09T19:36:18.973Z,96.50
2023-01-09T19:39:22.396Z,410.38
2023-01-09T19:42:27.525Z,361.50
2023-01-09T19:45:31.627Z,87.20
2023-01-09T19:48:34.995Z,113.05
2023-01-09T19:51:38.675Z,57.45
2023-01-09T19:54:42.441Z,426.00
2023-01-09T19:57:47.707Z,182.07
2023-01-09T20:00:51.113Z,226.45
2023-01-09T20:03:56.459Z,114.13
2023-01-09T20:06:59.834Z,52.42
2023-01-09T20:10:03.940Z,61.30
2023-01-09T20:13:09.619Z,68.25
2023-01-09T20:16:16.733Z,110.28
2023-01-09T20:19:20.346Z,65.20
2023-01-09T20:22:26.299Z,49.92
2023-01-09T20:25:29.868Z,60.15
2023-01-09T20:28:34.594Z,44.85
2023-01-09T20:31:38.046Z,62.00
2023-01-09T20:34:42.564Z,137.43
2023-01-09T20:37:46.552Z,93.45
2023-01-09T20:40:50.278Z,40.88
2023-01-09T20:43:57.788Z,48.08
2023-01-09T20:47:01.624Z,54.78
2023-01-09T20:50:05.598Z,70.40
2023-01-09T20:53:09.268Z,52.00
2023-01-09T20:56:12.706Z,114.55
2023-01-09T20:59:20.299Z,66.40
2023-01-09T21:02:24.536Z,111.22
2023-01-09T21:05:28.048Z,80.55
2023-01-09T21:08:31.594Z,79.97
2023-01-09T21:11:35.028Z,70.38
2023-01-09T21:14:40.084Z,96.57
2023-01-09T21:17:44.050Z,131.20
2023-01-09T21:20:47.568Z,226.48
2023-01-09T21:23:52.956Z,212.02
2023-01-09T21:26:56.220Z,309.17
2023-01-09T21:30:01.473Z,285.17
2023-01-09T21:33:05.099Z,154.00
2023-01-09T21:36:09.732Z,105.82
2023-01-09T21:39:13.256Z,85.18
2023-01-09T21:42:34.151Z,390.73
2023-01-09T21:45:56.371Z,269.98
2023-01-09T21:48:59.770Z,104.30
2023-01-09T21:52:03.525Z,134.18
2023-01-09T21:55:07.729Z,328.73
2023-01-09T21:58:11.930Z,167.90
2023-01-09T22:01:16.997Z,267.92
2023-01-09T22:04:22.199Z,122.15
2023-01-09T22:07:25.463Z,110.68
2023-01-09T22:10:28.829Z,130.68
2023-01-09T22:13:32.525Z,105.35
2023-01-09T22:16:37.247Z,112.03
2023-01-09T22:19:40.591Z,58.10
2023-01-09T22:22:43.853Z,51.38
2023-01-09T22:25:47.471Z,57.85
2023-01-09T22:28:51.143Z,71.60
2023-01-09T22:31:55.725Z,43.30
2023-01-09T22:34:59.034Z,61.13
2023-01-09T22:38:02.331Z,61.33
2023-01-09T22:41:06.783Z,47.35
2023-01-09T22:44:11.356Z,69.93
2023-01-09T22:47:15.891Z,73.90
2023-01-09T22:50:19.627Z,46.35
2023-01-09T22:53:22.782Z,49.60
2023-01-09T22:56:26.045Z,105.90
2023-01-09T22:59:31.398Z,117.50
2023-01-09T23:02:37.119Z,107.88
2023-01-09T23:05:40.322Z,86.07
2023-01-09T23:08:44.144Z,57.90
2023-01-09T23:12:06.161Z,46.35
2023-01-09T23:15:10.254Z,65.70
2023-01-09T23:18:14.864Z,42.03
2023-01-09T23:21:18.259Z,80.40
2023-01-09T23:24:21.521Z,36.47
2023-01-09T23:27:24.792Z,50.47
2023-01-09T23:30:28.082Z,51.50
2023-01-09T23:33:32.883Z,37.08
2023-01-09T23:36:36.442Z,40.42
2023-01-09T23:39:39.981Z,41.58
2023-01-09T23:43:00.584Z,38.33
2023-01-09T23:46:04.051Z,40.17
2023-01-09T23:49:08.896Z,40.08
2023-01-09T23:52:12.214Z,38.75
2023-01-09T23:55:15.807Z,39.75
2023-01-09T23:58:18.977Z,41.13
